createdAt,value
2022-12-16T00:00:19.364Z,-9.70
2022-12-16T00:02:24.519Z,-9.70
2022-12-16T00:04:29.599Z,-9.60
2022-12-16T00:06:36.974Z,-9.60
2022-12-16T00:08:43.306Z,-9.60
2022-12-16T00:10:56.922Z,-9.60
2022-12-16T00:13:04.761Z,-9.60
2022-12-16T00:15:14.471Z,-9.60
2022-12-16T00:17:19.471Z,-9.60
2022-12-16T00:19:24.701Z,-9.60
2022-12-16T00:21:29.808Z,-9.60
2022-12-16T00:23:36.874Z,-9.60
2022-12-16T00:25:43.851Z,-9.60
2022-12-16T00:27:54.848Z,-9.60
2022-12-16T00:30:03.076Z,-9.70
2022-12-16T00:32:08.422Z,-9.60
2022-12-16T00:34:13.527Z,-9.70
2022-12-16T00:36:18.665Z,-9.70
2022-12-16T00:38:25.470Z,-9.70
2022-12-16T00:40:30.813Z,-9.70
2022-12-16T00:42:35.750Z,-9.70
2022-12-16T00:44:44.479Z,-9.70
2022-12-16T00:46:49.829Z,-9.70
2022-12-16T00:48:55.457Z,-9.70
2022-12-16T00:51:00.393Z,-9.70
2022-12-16T00:53:06.445Z,-9.70
2022-12-16T00:55:13.366Z,-9.70
2022-12-16T00:57:18.726Z,-9.70
2022-12-16T00:59:24.168Z,-9.70
2022-12-16T01:01:31.765Z,-9.70
2022-12-16T01:03:38.085Z,-9.70
2022-12-16T01:05:43.398Z,-9.70
2022-12-16T01:07:48.354Z,-9.80
2022-12-16T01:09:53.581Z,-9.70
2022-12-16T01:12:00.318Z,-9.70
2022-12-16T01:14:05.772Z,-9.70
2022-12-16T01:16:11.093Z,-9.80
2022-12-16T01:18:19.862Z,-9.80
2022-12-16T01:20:24.930Z,-9.90
2022-12-16T01:22:35.102Z,-10.00
2022-12-16T01:24:40.038Z,-9.90
2022-12-16T01:26:46.038Z,-9.90
2022-12-16T01:28:52.007Z,-9.90
2022-12-16T01:31:02.163Z,-9.90
2022-12-16T01:33:07.260Z,-9.90
2022-12-16T01:35:50.805Z,-9.90
2022-12-16T01:37:41.449Z,-9.90
2022-12-16T01:39:46.555Z,-9.90
2022-12-16T01:41:51.586Z,-9.90
2022-12-16T01:44:17.708Z,-9.90
2022-12-16T01:46:27.638Z,-9.90
2022-12-16T01:48:46.548Z,-10.00
2022-12-16T01:50:59.042Z,-10.00
2022-12-16T01:53:07.347Z,-10.10
2022-12-16T01:55:18.666Z,-10.10
2022-12-16T01:57:29.359Z,-10.10
2022-12-16T01:59:38.867Z,-10.10
2022-12-16T02:01:44.008Z,-10.10
2022-12-16T02:03:50.912Z,-10.00
2022-12-16T02:05:59.235Z,-10.10
2022-12-16T02:08:10.014Z,-10.10
2022-12-16T02:10:15.340Z,-10.10
2022-12-16T02:12:32.012Z,-10.10
2022-12-16T02:15:00.960Z,-10.10
2022-12-16T02:17:16.920Z,-10.10
2022-12-16T02:20:01.490Z,-10.10
2022-12-16T02:22:26.955Z,-10.10
2022-12-16T02:25:15.805Z,-10.10
2022-12-16T02:27:55.218Z,-10.10
2022-12-16T02:30:13.801Z,-10.20
2022-12-16T02:32:29.324Z,-10.20
2022-12-16T02:34:44.250Z,-10.20
2022-12-16T02:37:04.982Z,-10.20
2022-12-16T02:39:17.099Z,-10.20
2022-12-16T02:41:32.287Z,-10.20
2022-12-16T02:43:54.670Z,-10.20
2022-12-16T02:46:01.330Z,-10.20
2022-12-16T02:48:09.709Z,-10.30
2022-12-16T02:50:23.686Z,-10.30
2022-12-16T02:52:32.039Z,-10.30
2022-12-16T02:54:37.700Z,-10.30
2022-12-16T02:56:54.566Z,-10.40
2022-12-16T02:59:15.883Z,-10.40
2022-12-16T03:01:28.291Z,-10.50
2022-12-16T03:03:43.417Z,-10.50
2022-12-16T03:05:52.655Z,-10.50
2022-12-16T03:08:02.654Z,-10.50
2022-12-16T03:10:16.713Z,-10.60
2022-12-16T03:12:23.990Z,-10.60
2022-12-16T03:14:35.247Z,-10.60
2022-12-16T03:16:40.406Z,-10.50
2022-12-16T03:18:56.854Z,-10.50
2022-12-16T03:21:06.213Z,-10.50
2022-12-16T03:23:17.056Z,-10.60
2022-12-16T03:25:24.083Z,-10.60
2022-12-16T03:27:37.621Z,-10.60
2022-12-16T03:29:52.695Z,-10.60
2022-12-16T03:32:03.261Z,-10.60
2022-12-16T03:34:19.685Z,-10.60
2022-12-16T03:36:27.980Z,-10.50
2022-12-16T03:38:35.140Z,-10.60
2022-12-16T03:40:42.608Z,-10.60
2022-12-16T03:42:48.429Z,-10.60
2022-12-16T03:44:53.766Z,-10.60
2022-12-16T03:46:59.486Z,-10.60
2022-12-16T03:49:04.554Z,-10.60
2022-12-16T03:51:12.586Z,-10.60
2022-12-16T03:53:17.367Z,-10.60
2022-12-16T03:55:23.065Z,-10.50
2022-12-16T03:57:28.038Z,-10.60
2022-12-16T03:59:33.082Z,-10.60
2022-12-16T04:01:38.719Z,-10.60
2022-12-16T04:03:43.995Z,-10.60
2022-12-16T04:05:49.777Z,-10.60
2022-12-16T04:08:01.811Z,-10.60
2022-12-16T04:10:09.090Z,-10.60
2022-12-16T04:12:26.851Z,-10.60
2022-12-16T04:14:48.972Z,-10.70
2022-12-16T04:17:10.027Z,-10.70
2022-12-16T04:19:40.004Z,-10.70
2022-12-16T04:21:58.057Z,-10.70
2022-12-16T04:24:24.236Z,-10.70
2022-12-16T04:26:29.240Z,-10.80
2022-12-16T04:28:34.393Z,-10.80
2022-12-16T04:30:36.852Z,-10.80
2022-12-16T04:32:54.392Z,-10.70
2022-12-16T04:35:11.437Z,-10.70
2022-12-16T04:37:28.668Z,-10.80
2022-12-16T04:39:48.536Z,-10.80
2022-12-16T04:42:08.292Z,-10.90
2022-12-16T04:44:25.779Z,-10.90
2022-12-16T04:46:43.567Z,-10.90
2022-12-16T04:49:01.064Z,-10.80
2022-12-16T04:51:18.594Z,-10.80
2022-12-16T04:53:36.210Z,-10.80
2022-12-16T04:56:03.640Z,-10.80
2022-12-16T04:58:21.716Z,-10.80
2022-12-16T05:00:39.389Z,-10.80
2022-12-16T05:02:56.849Z,-10.90
2022-12-16T05:05:14.618Z,-11.00
2022-12-16T05:07:37.738Z,-10.90
2022-12-16T05:09:55.358Z,-10.90
2022-12-16T05:12:15.795Z,-10.90
2022-12-16T05:14:33.259Z,-10.90
2022-12-16T05:16:50.997Z,-10.90
2022-12-16T05:19:08.223Z,-10.90
2022-12-16T05:21:25.489Z,-10.90
2022-12-16T05:23:43.272Z,-10.90
2022-12-16T05:26:00.563Z,-11.00
2022-12-16T05:28:21.188Z,-11.00
2022-12-16T05:30:38.640Z,-11.00
2022-12-16T05:32:56.460Z,-11.00
2022-12-16T05:35:13.796Z,-11.00
2022-12-16T05:37:39.741Z,-11.00
2022-12-16T05:39:57.187Z,-11.00
2022-12-16T05:42:14.456Z,-11.00
2022-12-16T05:44:34.490Z,-11.00
2022-12-16T05:46:52.085Z,-11.00
2022-12-16T05:49:09.963Z,-11.00
2022-12-16T05:51:27.485Z,-11.00
2022-12-16T05:53:44.752Z,-10.90
2022-12-16T05:56:02.219Z,-11.00
2022-12-16T05:58:19.526Z,-11.00
2022-12-16T06:00:39.902Z,-11.00
2022-12-16T06:02:57.537Z,-11.00
2022-12-16T06:05:26.715Z,-11.10
2022-12-16T06:07:44.158Z,-11.10
2022-12-16T06:10:01.372Z,-11.10
2022-12-16T06:12:18.739Z,-11.10
2022-12-16T06:14:36.203Z,-11.10
2022-12-16T06:16:56.109Z,-11.10
2022-12-16T06:19:13.608Z,-11.10
2022-12-16T06:21:30.914Z,-11.10
2022-12-16T06:23:48.390Z,-11.10
2022-12-16T06:26:05.793Z,-11.10
2022-12-16T06:28:23.406Z,-11.10
2022-12-16T06:30:42.220Z,-11.10
2022-12-16T06:33:02.291Z,-11.20
2022-12-16T06:35:20.827Z,-11.20
2022-12-16T06:37:38.276Z,-11.20
2022-12-16T06:39:55.526Z,-11.30
2022-12-16T06:42:12.945Z,-11.30
2022-12-16T06:44:42.304Z,-11.30
2022-12-16T06:46:59.743Z,-11.20
2022-12-16T06:49:19.599Z,-11.20
2022-12-16T06:51:37.445Z,-11.20
2022-12-16T06:53:54.782Z,-11.20
2022-12-16T06:56:12.259Z,-11.30
2022-12-16T06:58:29.572Z,-11.20
2022-12-16T07:00:47.118Z,-11.30
2022-12-16T07:03:05.065Z,-11.20
2022-12-16T07:05:25.662Z,-11.20
2022-12-16T07:07:43.179Z,-11.20
2022-12-16T07:10:00.954Z,-11.20
2022-12-16T07:12:18.400Z,-11.20
2022-12-16T07:14:35.930Z,-11.20
2022-12-16T07:16:54.358Z,-11.40
2022-12-16T07:19:11.874Z,-11.30
2022-12-16T07:21:32.233Z,-11.20
2022-12-16T07:23:50.359Z,-11.20
2022-12-16T07:26:08.779Z,-11.10
2022-12-16T07:28:41.414Z,-11.20
2022-12-16T07:30:59.223Z,-11.10
2022-12-16T07:33:17.199Z,-11.10
2022-12-16T07:35:34.437Z,-11.10
2022-12-16T07:37:55.390Z,-11.10
2022-12-16T07:40:12.932Z,-11.20
2022-12-16T07:42:30.825Z,-11.10
2022-12-16T07:45:02.877Z,-11.10
2022-12-16T07:47:20.716Z,-11.00
2022-12-16T07:49:38.028Z,-10.90
2022-12-16T07:51:55.883Z,-10.90
2022-12-16T07:54:16.250Z,-10.90
2022-12-16T07:56:33.779Z,-10.80
2022-12-16T07:58:51.610Z,-10.80
2022-12-16T08:01:09.848Z,-10.60
2022-12-16T08:03:27.515Z,-10.50
2022-12-16T08:05:45.222Z,-10.50
2022-12-16T08:08:02.718Z,-10.50
2022-12-16T08:10:23.836Z,-10.40
2022-12-16T08:12:43.856Z,-10.40
2022-12-16T08:15:02.063Z,-10.40
2022-12-16T08:17:19.551Z,-10.40
2022-12-16T08:19:36.839Z,-10.30
2022-12-16T08:21:54.114Z,-10.30
2022-12-16T08:24:13.509Z,-10.30
2022-12-16T08:26:33.600Z,-10.30
2022-12-16T08:28:51.424Z,-10.20
2022-12-16T08:31:08.988Z,-10.20
2022-12-16T08:33:26.515Z,-10.10
2022-12-16T08:35:44.377Z,-10.10
2022-12-16T08:38:02.450Z,-10.10
2022-12-16T08:40:37.124Z,-10.10
2022-12-16T08:42:57.385Z,-10.20
2022-12-16T08:45:14.939Z,-10.10
2022-12-16T08:47:32.510Z,-10.20
2022-12-16T08:50:03.467Z,-10.10
2022-12-16T08:52:21.448Z,-10.00
2022-12-16T08:54:39.079Z,-9.90
2022-12-16T08:56:57.611Z,-9.80
2022-12-16T08:59:17.753Z,-9.80
2022-12-16T09:01:35.415Z,-9.60
2022-12-16T09:03:53.232Z,-9.60
2022-12-16T09:06:29.072Z,-9.50
2022-12-16T09:08:48.378Z,-9.50
2022-12-16T09:11:06.004Z,-9.50
2022-12-16T09:13:23.720Z,-9.40
2022-12-16T09:15:44.374Z,-9.30
2022-12-16T09:18:08.181Z,-9.20
2022-12-16T09:20:26.831Z,-9.20
2022-12-16T09:22:44.265Z,-9.10
2022-12-16T09:25:02.092Z,-9.10
2022-12-16T09:27:19.331Z,-9.20
2022-12-16T09:29:41.877Z,-9.10
2022-12-16T09:32:03.646Z,-9.10
2022-12-16T09:34:21.091Z,-9.10
2022-12-16T09:36:38.616Z,-9.10
2022-12-16T09:38:56.013Z,-9.00
2022-12-16T09:41:14.029Z,-8.90
2022-12-16T09:43:58.384Z,-8.90
2022-12-16T09:46:26.950Z,-8.80
2022-12-16T09:48:58.009Z,-8.70
2022-12-16T09:51:22.701Z,-8.60
2022-12-16T09:53:43.365Z,-8.40
2022-12-16T09:56:02.011Z,-8.50
2022-12-16T09:58:20.283Z,-8.40
2022-12-16T10:00:49.944Z,-8.40
2022-12-16T10:03:07.880Z,-8.40
2022-12-16T10:05:35.760Z,-8.20
2022-12-16T10:08:00.893Z,-8.10
2022-12-16T10:10:34.530Z,-7.80
2022-12-16T10:13:01.933Z,-7.20
2022-12-16T10:15:29.335Z,-6.50
2022-12-16T10:17:46.864Z,-6.20
2022-12-16T10:20:25.785Z,-6.20
2022-12-16T10:22:55.880Z,-6.20
2022-12-16T10:25:25.439Z,-5.80
2022-12-16T10:27:53.935Z,-5.90
2022-12-16T10:30:11.988Z,-5.70
2022-12-16T10:32:37.842Z,-6.00
2022-12-16T10:34:56.431Z,-5.60
2022-12-16T10:37:17.690Z,-5.50
2022-12-16T10:39:48.944Z,-5.40
2022-12-16T10:42:09.125Z,-5.50
2022-12-16T10:44:38.964Z,-5.60
2022-12-16T10:46:56.662Z,-5.40
2022-12-16T10:49:14.593Z,-5.50
2022-12-16T10:51:34.045Z,-5.40
2022-12-16T10:53:51.606Z,-5.50
2022-12-16T10:56:22.689Z,-5.50
2022-12-16T10:58:51.052Z,-5.10
2022-12-16T11:01:08.888Z,-5.10
2022-12-16T11:03:38.361Z,-5.00
2022-12-16T11:05:59.469Z,-4.90
2022-12-16T11:08:17.201Z,-4.80
2022-12-16T11:10:51.284Z,-4.80
2022-12-16T11:13:27.390Z,-4.80
2022-12-16T11:15:47.287Z,-4.70
2022-12-16T11:18:20.050Z,-4.70
2022-12-16T11:20:40.411Z,-4.80
2022-12-16T11:22:58.254Z,-4.70
2022-12-16T11:25:30.723Z,-4.30
2022-12-16T11:27:48.145Z,-4.20
2022-12-16T11:30:14.936Z,-4.20
2022-12-16T11:32:36.581Z,-4.10
2022-12-16T11:34:54.788Z,-4.10
2022-12-16T11:37:15.606Z,-4.00
2022-12-16T11:39:38.481Z,-3.90
2022-12-16T11:42:00.020Z,-3.90
2022-12-16T11:44:19.512Z,-3.90
2022-12-16T11:46:43.041Z,-3.80
2022-12-16T11:49:05.785Z,-3.80
2022-12-16T11:51:29.105Z,-3.90
2022-12-16T11:53:52.383Z,-3.80
2022-12-16T11:56:15.783Z,-3.70
2022-12-16T11:58:43.694Z,-3.70
2022-12-16T12:01:10.524Z,-3.60
2022-12-16T12:03:36.707Z,-3.70
2022-12-16T12:05:59.649Z,-3.50
2022-12-16T12:08:24.841Z,-3.40
2022-12-16T12:11:01.192Z,-3.30
2022-12-16T12:13:32.032Z,-3.30
2022-12-16T12:15:57.651Z,-3.30
2022-12-16T12:18:26.593Z,-3.20
2022-12-16T12:21:02.320Z,-3.20
2022-12-16T12:23:23.128Z,-3.10
2022-12-16T12:25:49.265Z,-3.00
2022-12-16T12:28:14.655Z,-3.00
2022-12-16T12:30:35.823Z,-3.10
2022-12-16T12:33:07.847Z,-3.10
2022-12-16T12:35:52.714Z,-3.10
2022-12-16T12:38:21.652Z,-3.00
2022-12-16T12:41:01.324Z,-2.80
2022-12-16T12:43:31.912Z,-2.90
2022-12-16T12:46:07.838Z,-2.80
2022-12-16T12:48:34.427Z,-2.90
2022-12-16T12:50:59.055Z,-3.00
2022-12-16T12:53:46.071Z,-3.00
2022-12-16T12:56:12.499Z,-3.10
2022-12-16T12:58:31.817Z,-3.00
2022-12-16T13:00:58.126Z,-3.00
2022-12-16T13:03:22.542Z,-3.00
2022-12-16T13:05:50.316Z,-3.00
2022-12-16T13:08:08.610Z,-3.00
2022-12-16T13:10:52.032Z,-3.00
2022-12-16T13:13:48.231Z,-3.00
2022-12-16T13:16:05.728Z,-3.00
2022-12-16T13:18:41.173Z,-3.00
2022-12-16T13:20:59.632Z,-2.90
2022-12-16T13:23:45.030Z,-2.80
2022-12-16T13:26:08.632Z,-2.70
2022-12-16T13:28:38.746Z,-2.70
2022-12-16T13:31:13.199Z,-2.90
2022-12-16T13:33:41.624Z,-2.90
2022-12-16T13:36:10.092Z,-3.00
2022-12-16T13:38:36.960Z,-3.10
2022-12-16T13:41:14.223Z,-3.10
2022-12-16T13:44:14.221Z,-3.00
2022-12-16T13:46:33.278Z,-2.80
2022-12-16T13:48:54.601Z,-2.70
2022-12-16T13:51:18.850Z,-2.60
2022-12-16T13:53:40.436Z,-2.50
2022-12-16T13:56:09.815Z,-2.60
2022-12-16T13:58:50.236Z,-2.60
2022-12-16T14:01:25.787Z,-2.50
2022-12-16T14:03:57.458Z,-2.60
2022-12-16T14:06:16.699Z,-2.60
2022-12-16T14:08:38.365Z,-2.60
2022-12-16T14:10:59.314Z,-2.60
2022-12-16T14:13:23.049Z,-2.60
2022-12-16T14:15:48.451Z,-2.50
2022-12-16T14:18:19.371Z,-2.50
2022-12-16T14:20:48.641Z,-2.40
2022-12-16T14:23:32.444Z,-2.40
2022-12-16T14:25:51.272Z,-2.50
2022-12-16T14:28:09.738Z,-2.50
2022-12-16T14:30:42.359Z,-2.40
2022-12-16T14:32:59.850Z,-2.50
2022-12-16T14:35:41.526Z,-2.40
2022-12-16T14:37:58.991Z,-2.50
2022-12-16T14:40:17.181Z,-2.60
2022-12-16T14:42:39.422Z,-2.60
2022-12-16T14:45:01.282Z,-2.60
2022-12-16T14:47:19.728Z,-2.60
2022-12-16T14:49:40.650Z,-2.60
2022-12-16T14:52:03.954Z,-2.70
2022-12-16T14:54:40.883Z,-2.90
2022-12-16T14:56:58.339Z,-3.00
2022-12-16T14:59:31.671Z,-3.10
2022-12-16T15:01:50.505Z,-3.20
2022-12-16T15:04:08.473Z,-3.30
2022-12-16T15:06:36.977Z,-3.40
2022-12-16T15:09:05.821Z,-3.40
2022-12-16T15:11:27.928Z,-3.50
2022-12-16T15:13:46.079Z,-3.60
2022-12-16T15:16:05.374Z,-3.60
2022-12-16T15:18:34.835Z,-3.70
2022-12-16T15:21:05.926Z,-3.70
2022-12-16T15:23:32.227Z,-3.80
2022-12-16T15:25:52.778Z,-3.90
2022-12-16T15:28:11.492Z,-3.90
2022-12-16T15:30:49.946Z,-4.00
2022-12-16T15:33:08.593Z,-4.00
2022-12-16T15:35:26.527Z,-4.10
2022-12-16T15:37:53.402Z,-4.10
2022-12-16T15:40:11.070Z,-4.20
2022-12-16T15:42:41.091Z,-4.30
2022-12-16T15:45:05.185Z,-4.30
2022-12-16T15:47:35.785Z,-4.40
2022-12-16T15:49:59.227Z,-4.40
2022-12-16T15:52:38.025Z,-4.40
2022-12-16T15:55:22.803Z,-4.50
2022-12-16T15:57:46.191Z,-4.50
2022-12-16T16:00:15.412Z,-4.70
2022-12-16T16:02:36.884Z,-4.70
2022-12-16T16:04:54.525Z,-4.80
2022-12-16T16:07:12.111Z,-4.90
2022-12-16T16:09:36.867Z,-4.90
2022-12-16T16:11:54.369Z,-5.00
2022-12-16T16:14:14.781Z,-5.00
2022-12-16T16:16:32.753Z,-5.10
2022-12-16T16:18:50.658Z,-5.10
2022-12-16T16:21:09.441Z,-5.10
2022-12-16T16:23:27.313Z,-5.20
2022-12-16T16:25:45.033Z,-5.30
2022-12-16T16:28:02.458Z,-5.30
2022-12-16T16:30:27.090Z,-5.40
2022-12-16T16:32:44.552Z,-5.40
2022-12-16T16:35:02.017Z,-5.50
2022-12-16T16:37:28.447Z,-5.50
2022-12-16T16:39:45.991Z,-5.60
2022-12-16T16:42:03.502Z,-5.60
2022-12-16T16:44:20.903Z,-5.70
2022-12-16T16:46:47.657Z,-5.70
2022-12-16T16:49:08.319Z,-5.70
2022-12-16T16:51:25.889Z,-5.80
2022-12-16T16:53:44.030Z,-5.90
2022-12-16T16:56:01.470Z,-5.90
2022-12-16T16:58:21.834Z,-6.00
2022-12-16T17:00:39.520Z,-6.10
2022-12-16T17:02:59.815Z,-6.10
2022-12-16T17:05:17.484Z,-6.20
2022-12-16T17:07:34.905Z,-6.20
2022-12-16T17:09:52.800Z,-6.20
2022-12-16T17:12:10.793Z,-6.30
2022-12-16T17:14:31.409Z,-6.30
2022-12-16T17:16:48.868Z,-6.40
2022-12-16T17:19:09.021Z,-6.40
2022-12-16T17:21:26.496Z,-6.50
2022-12-16T17:23:44.046Z,-6.50
2022-12-16T17:26:01.378Z,-6.50
2022-12-16T17:28:19.581Z,-6.60
2022-12-16T17:30:45.176Z,-6.60
2022-12-16T17:33:05.138Z,-6.60
2022-12-16T17:35:27.238Z,-6.60
2022-12-16T17:37:45.115Z,-6.70
2022-12-16T17:40:02.570Z,-6.80
2022-12-16T17:42:20.730Z,-6.80
2022-12-16T17:44:38.183Z,-6.80
2022-12-16T17:46:56.278Z,-6.80
2022-12-16T17:49:15.133Z,-6.90
2022-12-16T17:51:35.232Z,-6.90
2022-12-16T17:53:58.638Z,-6.90
2022-12-16T17:56:19.540Z,-7.00
2022-12-16T17:58:44.234Z,-7.00
2022-12-16T18:01:01.708Z,-7.00
2022-12-16T18:03:19.771Z,-7.10
2022-12-16T18:05:44.245Z,-7.10
2022-12-16T18:08:04.836Z,-7.10
2022-12-16T18:10:23.361Z,-7.10
2022-12-16T18:12:41.562Z,-7.20
2022-12-16T18:14:59.350Z,-7.20
2022-12-16T18:17:17.823Z,-7.20
2022-12-16T18:19:35.966Z,-7.20
2022-12-16T18:21:54.205Z,-7.20
2022-12-16T18:24:14.517Z,-7.30
2022-12-16T18:26:37.916Z,-7.30
2022-12-16T18:28:55.401Z,-7.30
2022-12-16T18:31:12.937Z,-7.40
2022-12-16T18:33:30.557Z,-7.50
2022-12-16T18:35:48.147Z,-7.40
2022-12-16T18:38:05.634Z,-7.40
2022-12-16T18:40:26.453Z,-7.50
2022-12-16T18:42:43.961Z,-7.50
2022-12-16T18:45:12.482Z,-7.60
2022-12-16T18:47:29.990Z,-7.90
2022-12-16T18:49:47.742Z,-7.90
2022-12-16T18:52:05.536Z,-8.20
2022-12-16T18:54:23.141Z,-8.10
2022-12-16T18:56:44.061Z,-8.00
2022-12-16T18:59:04.303Z,-8.00
2022-12-16T19:01:25.454Z,-8.00
2022-12-16T19:03:54.965Z,-8.00
2022-12-16T19:06:12.381Z,-7.90
2022-12-16T19:08:29.865Z,-8.00
2022-12-16T19:10:47.476Z,-8.00
2022-12-16T19:13:11.198Z,-7.90
2022-12-16T19:15:28.779Z,-8.00
2022-12-16T19:17:46.011Z,-8.20
2022-12-16T19:20:03.571Z,-8.20
2022-12-16T19:22:20.833Z,-8.20
2022-12-16T19:24:38.197Z,-8.20
2022-12-16T19:26:56.575Z,-8.30
2022-12-16T19:29:17.324Z,-8.30
2022-12-16T19:31:34.880Z,-8.40
2022-12-16T19:33:52.158Z,-8.60
2022-12-16T19:36:14.309Z,-8.80
2022-12-16T19:38:31.943Z,-8.80
2022-12-16T19:40:49.458Z,-8.50
2022-12-16T19:43:07.246Z,-8.50
2022-12-16T19:45:36.119Z,-8.70
2022-12-16T19:47:53.734Z,-8.60
2022-12-16T19:50:11.717Z,-8.50
2022-12-16T19:52:29.622Z,-8.40
2022-12-16T19:54:47.101Z,-8.30
2022-12-16T19:57:04.946Z,-8.30
2022-12-16T19:59:22.775Z,-8.30
2022-12-16T20:01:43.313Z,-8.20
2022-12-16T20:04:01.118Z,-8.20
2022-12-16T20:06:21.800Z,-8.20
2022-12-16T20:08:39.430Z,-8.10
2022-12-16T20:10:56.766Z,-8.10
2022-12-16T20:13:18.515Z,-8.20
2022-12-16T20:15:40.564Z,-8.10
2022-12-16T20:18:00.510Z,-8.40
2022-12-16T20:20:18.632Z,-8.30
2022-12-16T20:22:36.127Z,-8.20
2022-12-16T20:27:31.864Z,-8.20
2022-12-16T20:29:49.346Z,-8.30
2022-12-16T20:32:06.925Z,-8.10
2022-12-16T20:34:27.137Z,-8.10
2022-12-16T20:36:44.634Z,-8.00
2022-12-16T20:39:02.967Z,-8.00
2022-12-16T20:41:21.142Z,-8.00
2022-12-16T20:43:39.124Z,-7.90
2022-12-16T20:46:05.253Z,-8.00
2022-12-16T20:48:22.795Z,-7.90
2022-12-16T20:50:42.676Z,-7.90
2022-12-16T20:53:00.148Z,-7.90
2022-12-16T20:55:17.681Z,-7.90
2022-12-16T20:57:35.134Z,-7.90
2022-12-16T20:59:52.605Z,-7.90
2022-12-16T21:02:32.872Z,-7.90
2022-12-16T21:04:47.996Z,-8.00
2022-12-16T21:07:07.886Z,-7.90
2022-12-16T21:09:25.329Z,-8.00
2022-12-16T21:11:43.876Z,-8.00
2022-12-16T21:14:01.494Z,-8.00
2022-12-16T21:16:21.630Z,-8.00
2022-12-16T21:18:39.467Z,-8.00
2022-12-16T21:20:56.857Z,-8.00
2022-12-16T21:23:20.033Z,-7.90
2022-12-16T21:25:38.065Z,-7.90
2022-12-16T21:27:55.741Z,-7.90
2022-12-16T21:30:13.237Z,-7.80
2022-12-16T21:32:30.894Z,-7.80
2022-12-16T21:34:48.322Z,-7.80
2022-12-16T21:37:05.942Z,-7.80
2022-12-16T21:39:26.060Z,-7.80
2022-12-16T21:41:43.652Z,-7.70
2022-12-16T21:44:01.125Z,-7.70
2022-12-16T21:46:18.623Z,-7.60
2022-12-16T21:48:47.691Z,-7.60
2022-12-16T21:51:08.215Z,-7.60
2022-12-16T21:53:27.457Z,-7.50
2022-12-16T21:55:47.814Z,-7.50
2022-12-16T21:58:05.301Z,-7.50
2022-12-16T22:00:25.289Z,-7.40
2022-12-16T22:02:42.753Z,-7.40
2022-12-16T22:05:00.467Z,-7.40
2022-12-16T22:07:18.057Z,-7.40
2022-12-16T22:09:35.819Z,-7.40
2022-12-16T22:11:56.336Z,-7.40
2022-12-16T22:14:15.329Z,-7.30
2022-12-16T22:16:32.763Z,-7.30
2022-12-16T22:18:50.347Z,-7.30
2022-12-16T22:21:13.508Z,-7.30
2022-12-16T22:23:30.966Z,-7.20
2022-12-16T22:25:49.135Z,-7.20
2022-12-16T22:28:09.730Z,-7.10
2022-12-16T22:30:27.930Z,-7.10
2022-12-16T22:32:46.275Z,-7.10
2022-12-16T22:35:04.134Z,-7.00
2022-12-16T22:37:21.639Z,-7.00
2022-12-16T22:39:44.585Z,-7.00
2022-12-16T22:42:02.886Z,-7.00
2022-12-16T22:44:24.186Z,-7.00
2022-12-16T22:46:42.768Z,-7.00
2022-12-16T22:49:02.028Z,-6.90
2022-12-16T22:51:24.513Z,-6.80
2022-12-16T22:53:42.298Z,-6.80
2022-12-16T22:56:06.919Z,-6.80
2022-12-16T22:58:25.617Z,-6.80
2022-12-16T23:00:45.723Z,-6.80
2022-12-16T23:03:03.160Z,-6.70
2022-12-16T23:08:00.103Z,-6.70
2022-12-16T23:10:17.646Z,-6.70
2022-12-16T23:12:36.028Z,-6.70
2022-12-16T23:14:54.032Z,-6.70
2022-12-16T23:17:14.119Z,-6.60
2022-12-16T23:19:31.733Z,-6.60
2022-12-16T23:21:48.990Z,-6.60
2022-12-16T23:24:07.940Z,-6.50
2022-12-16T23:26:25.525Z,-6.50
2022-12-16T23:28:43.224Z,-6.50
2022-12-16T23:31:07.396Z,-6.50
2022-12-16T23:33:27.449Z,-6.50
2022-12-16T23:35:44.931Z,-6.40
2022-12-16T23:38:02.860Z,-6.40
2022-12-16T23:40:22.156Z,-6.40
2022-12-16T23:42:40.115Z,-6.40
2022-12-16T23:44:57.898Z,-6.30
2022-12-16T23:47:15.408Z,-6.30
2022-12-16T23:49:35.843Z,-6.20
2022-12-16T23:51:53.336Z,-6.20
2022-12-16T23:54:11.861Z,-6.20
2022-12-16T23:56:29.346Z,-6.20
2022-12-16T23:58:46.846Z,-6.20
